Lenox, Iowa
Current Conditions -  °F | °C
As of 4:55 AM on Thursday 23 Oct 2014 (Local Time) from KCSQ Reporting Station
Overcast Overcast  
Wind Chill: 54°   Ceiling: 9000
Heat Index: 54°   Visibility: 10mi
Dew Point: 54°   Wind: 13mph
Humidity: 100%   Direction: 190°S
Pressure: 30.05"   Gusts: NA
Location:  40.88°N, 94.56°W
Report Text: KCSQ 230955Z AUTO 19011KT 10SM OVC090 12/12 A3005 RMK AO2
Loading
Personal Weather Stations






























Interactive Weather Map
Tropical Storm Tracking
New forecast layout! Learn more

10-Day Weather Forecast

Advertisements
Track Severe Weather on mobile